createdAt,value
2019-03-23T00:01:22.383Z,15.57
2019-03-23T00:03:50.371Z,15.93
2019-03-23T00:06:18.230Z,15.83
2019-03-23T00:08:46.121Z,12.87
2019-03-23T00:11:13.933Z,12.57
2019-03-23T00:13:41.814Z,14.87
2019-03-23T00:16:09.663Z,17.33
2019-03-23T00:18:37.560Z,12.47
2019-03-23T00:21:05.432Z,13.77
2019-03-23T00:23:33.303Z,13.53
2019-03-23T00:26:01.232Z,16.03
2019-03-23T00:28:29.161Z,13.93
2019-03-23T00:30:57.085Z,19.87
2019-03-23T00:33:24.856Z,14.20
2019-03-23T00:35:52.701Z,11.50
2019-03-23T00:38:20.463Z,17.93
2019-03-23T00:40:48.661Z,16.40
2019-03-23T00:43:16.655Z,16.53
2019-03-23T00:45:44.502Z,19.77
2019-03-23T00:48:12.359Z,15.60
2019-03-23T00:50:40.217Z,18.63
2019-03-23T00:53:08.115Z,26.23
2019-03-23T00:55:36.013Z,28.20
2019-03-23T00:58:03.877Z,22.07
2019-03-23T01:00:31.761Z,23.33
2019-03-23T01:02:59.526Z,23.80
2019-03-23T01:05:27.404Z,25.10
2019-03-23T01:07:55.279Z,24.20
2019-03-23T01:10:23.141Z,25.60
2019-03-23T01:12:51.086Z,29.60
2019-03-23T01:15:18.954Z,18.90
2019-03-23T01:17:46.825Z,18.77
2019-03-23T01:20:14.836Z,22.97
2019-03-23T01:22:42.747Z,24.00
2019-03-23T01:25:11.694Z,24.70
2019-03-23T01:27:39.589Z,22.97
2019-03-23T01:30:08.093Z,30.77
2019-03-23T01:32:35.946Z,31.10
2019-03-23T01:35:04.398Z,30.90
2019-03-23T01:37:32.301Z,27.60
2019-03-23T01:40:00.359Z,30.60
2019-03-23T01:42:28.298Z,34.27
2019-03-23T01:44:56.265Z,33.47
2019-03-23T01:47:24.013Z,35.37
2019-03-23T01:49:51.935Z,25.43
2019-03-23T01:52:19.831Z,33.13
2019-03-23T01:54:47.718Z,37.43
2019-03-23T01:57:15.618Z,32.67
2019-03-23T01:59:43.511Z,31.30
2019-03-23T02:02:11.295Z,36.10
2019-03-23T02:04:39.284Z,38.40
2019-03-23T02:07:13.767Z,41.90
2019-03-23T02:09:36.946Z,44.67
2019-03-23T02:12:04.870Z,46.13
2019-03-23T02:14:32.770Z,44.30
2019-03-23T02:17:00.633Z,41.80
2019-03-23T02:19:28.406Z,45.17
2019-03-23T02:21:56.357Z,45.23
2019-03-23T02:24:24.254Z,52.07
2019-03-23T02:26:52.188Z,51.53
2019-03-23T02:29:20.186Z,63.50
2019-03-23T02:31:48.051Z,64.00
2019-03-23T02:34:15.944Z,70.17
2019-03-23T02:36:43.842Z,77.50
2019-03-23T02:39:11.783Z,74.77
2019-03-23T02:41:39.709Z,74.80
2019-03-23T02:44:07.573Z,76.40
2019-03-23T02:46:35.481Z,80.57
2019-03-23T02:49:03.249Z,80.47
2019-03-23T02:51:31.162Z,86.40
2019-03-23T02:53:59.067Z,88.53
2019-03-23T02:56:26.826Z,90.17
2019-03-23T02:58:54.749Z,93.17
2019-03-23T03:01:23.647Z,91.20
2019-03-23T03:03:51.541Z,94.30
2019-03-23T03:06:19.413Z,93.27
2019-03-23T03:08:47.253Z,101.70
2019-03-23T03:11:15.099Z,113.53
2019-03-23T03:13:42.870Z,113.60
2019-03-23T03:16:10.754Z,123.53
2019-03-23T03:18:38.533Z,127.63
2019-03-23T03:21:06.394Z,126.87
2019-03-23T03:23:34.174Z,121.77
2019-03-23T03:26:02.088Z,143.30
2019-03-23T03:28:29.928Z,140.43
2019-03-23T03:30:57.793Z,135.67
2019-03-23T03:33:25.704Z,161.60
2019-03-23T03:35:53.594Z,173.97
2019-03-23T03:38:21.357Z,172.60
2019-03-23T03:40:49.261Z,166.07
2019-03-23T03:43:17.100Z,162.03
2019-03-23T03:45:44.996Z,179.60
2019-03-23T03:48:12.888Z,177.83
2019-03-23T03:50:40.746Z,148.43
2019-03-23T03:53:08.609Z,157.80
2019-03-23T03:55:36.560Z,156.87
2019-03-23T03:58:04.537Z,144.10
2019-03-23T04:00:32.323Z,160.10
2019-03-23T04:03:00.231Z,162.77
2019-03-23T04:05:28.215Z,161.10
2019-03-23T04:08:09.850Z,163.07
2019-03-23T04:10:25.777Z,182.83
2019-03-23T04:12:53.681Z,182.23
2019-03-23T04:15:21.453Z,176.30
2019-03-23T04:17:49.355Z,178.17
2019-03-23T04:20:17.109Z,165.07
2019-03-23T04:22:44.990Z,188.73
2019-03-23T04:25:12.912Z,206.23
2019-03-23T04:27:40.708Z,197.83
2019-03-23T04:30:08.954Z,216.80
2019-03-23T04:32:36.836Z,239.57
2019-03-23T04:35:06.596Z,236.53
2019-03-23T04:37:34.486Z,246.50
2019-03-23T04:40:02.363Z,237.27
2019-03-23T04:42:30.241Z,243.57
2019-03-23T04:44:58.149Z,266.03
2019-03-23T04:47:26.056Z,266.07
2019-03-23T04:49:53.912Z,271.97
2019-03-23T04:52:21.775Z,270.33
2019-03-23T04:54:49.583Z,264.97
2019-03-23T04:57:17.538Z,289.70
2019-03-23T04:59:45.438Z,285.57
2019-03-23T05:02:13.308Z,286.37
2019-03-23T05:04:41.196Z,276.67
2019-03-23T05:07:09.104Z,283.37
2019-03-23T05:09:36.972Z,301.17
2019-03-23T05:12:04.756Z,283.47
2019-03-23T05:14:32.663Z,271.57
2019-03-23T05:17:00.548Z,298.50
2019-03-23T05:19:28.404Z,288.73
2019-03-23T05:21:56.316Z,282.97
2019-03-23T05:24:24.182Z,315.23
2019-03-23T05:26:52.064Z,293.27
2019-03-23T05:29:19.918Z,306.63
2019-03-23T05:31:47.684Z,309.40
2019-03-23T05:34:15.558Z,301.17
2019-03-23T05:36:43.318Z,298.93
2019-03-23T05:39:11.200Z,296.17
2019-03-23T05:41:39.062Z,307.87
2019-03-23T05:44:06.918Z,325.93
2019-03-23T05:46:34.791Z,280.03
2019-03-23T05:49:02.536Z,302.20
2019-03-23T05:51:30.413Z,282.93
2019-03-23T05:53:58.192Z,292.13
2019-03-23T05:56:25.979Z,300.83
2019-03-23T05:58:53.848Z,287.07
2019-03-23T06:01:21.660Z,320.63
2019-03-23T06:03:49.525Z,300.17
2019-03-23T06:06:17.290Z,304.13
2019-03-23T06:08:54.499Z,300.40
2019-03-23T06:11:15.019Z,277.93
2019-03-23T06:13:42.901Z,287.20
2019-03-23T06:16:10.758Z,289.93
2019-03-23T06:18:38.647Z,320.17
2019-03-23T06:21:06.523Z,309.43
2019-03-23T06:23:34.251Z,300.93
2019-03-23T06:26:02.146Z,346.13
2019-03-23T06:28:30.002Z,307.20
2019-03-23T06:30:57.909Z,311.00
2019-03-23T06:33:25.771Z,294.10
2019-03-23T06:35:53.523Z,320.97
2019-03-23T06:38:21.419Z,312.27
2019-03-23T06:40:49.268Z,305.37
2019-03-23T06:43:17.156Z,296.03
2019-03-23T06:45:45.068Z,278.60
2019-03-23T06:48:12.831Z,310.17
2019-03-23T06:50:40.716Z,305.53
2019-03-23T06:53:08.593Z,337.63
2019-03-23T06:55:36.351Z,331.97
2019-03-23T06:58:04.224Z,320.53
2019-03-23T07:00:31.991Z,322.77
2019-03-23T07:02:59.837Z,343.30
2019-03-23T07:05:27.722Z,328.77
2019-03-23T07:07:55.634Z,300.83
2019-03-23T07:10:23.515Z,316.73
2019-03-23T07:12:51.370Z,301.27
2019-03-23T07:15:20.514Z,339.70
2019-03-23T07:17:48.402Z,318.73
2019-03-23T07:20:16.280Z,345.97
2019-03-23T07:22:44.189Z,331.13
2019-03-23T07:25:12.027Z,356.30
2019-03-23T07:27:40.010Z,332.57
2019-03-23T07:30:09.555Z,343.87
2019-03-23T07:32:37.440Z,326.73
2019-03-23T07:35:05.404Z,341.03
2019-03-23T07:37:33.305Z,316.10
2019-03-23T07:40:01.220Z,289.40
2019-03-23T07:42:29.111Z,305.83
2019-03-23T07:44:56.885Z,285.63
2019-03-23T07:47:24.757Z,318.33
2019-03-23T07:49:52.617Z,294.43
2019-03-23T07:52:20.475Z,313.20
2019-03-23T07:54:48.366Z,286.77
2019-03-23T07:57:16.247Z,303.33
2019-03-23T07:59:44.120Z,304.07
2019-03-23T08:02:12.009Z,302.23
2019-03-23T08:04:39.900Z,332.80
2019-03-23T08:07:07.786Z,336.90
2019-03-23T08:09:37.851Z,254.97
2019-03-23T08:12:05.552Z,286.80
2019-03-23T08:14:36.000Z,295.03
2019-03-23T08:17:03.049Z,272.87
2019-03-23T08:19:30.900Z,247.17
2019-03-23T08:21:58.749Z,243.17
2019-03-23T08:24:26.622Z,230.87
2019-03-23T08:26:54.504Z,241.60
2019-03-23T08:29:22.447Z,205.33
2019-03-23T08:31:50.380Z,202.60
2019-03-23T08:34:18.273Z,197.67
2019-03-23T08:36:46.163Z,211.50
2019-03-23T08:39:14.057Z,204.13
2019-03-23T08:41:42.160Z,200.13
2019-03-23T08:44:10.072Z,193.07
2019-03-23T08:46:37.969Z,196.37
2019-03-23T08:49:05.986Z,169.77
2019-03-23T08:51:33.791Z,175.33
2019-03-23T08:54:01.680Z,164.73
2019-03-23T08:56:29.667Z,164.00
2019-03-23T08:58:57.569Z,153.20
2019-03-23T09:01:25.458Z,140.03
2019-03-23T09:03:53.323Z,144.77
2019-03-23T09:06:21.129Z,139.90
2019-03-23T09:08:49.037Z,131.07
2019-03-23T09:11:20.636Z,144.17
2019-03-23T09:13:46.647Z,132.90
2019-03-23T09:16:14.399Z,123.73
2019-03-23T09:18:42.288Z,132.77
2019-03-23T09:21:10.193Z,132.90
2019-03-23T09:23:38.061Z,124.27
2019-03-23T09:26:05.975Z,112.53
2019-03-23T09:28:33.849Z,107.77
2019-03-23T09:31:01.794Z,115.27
2019-03-23T09:33:29.623Z,111.17
2019-03-23T09:35:57.493Z,109.87
2019-03-23T09:38:25.393Z,114.40
2019-03-23T09:40:53.306Z,109.37
2019-03-23T09:43:21.164Z,107.87
2019-03-23T09:45:49.022Z,103.50
2019-03-23T09:48:16.936Z,100.10
2019-03-23T09:50:44.825Z,95.63
2019-03-23T09:53:12.737Z,97.40
2019-03-23T09:55:40.626Z,104.67
2019-03-23T09:58:08.483Z,95.23
2019-03-23T10:00:36.274Z,91.77
2019-03-23T10:03:04.203Z,93.63
2019-03-23T10:05:32.024Z,92.57
2019-03-23T10:07:59.886Z,94.53
2019-03-23T10:10:27.742Z,85.40
2019-03-23T10:12:55.521Z,81.47
2019-03-23T10:15:23.422Z,82.67
2019-03-23T10:17:52.203Z,82.97
2019-03-23T10:20:20.102Z,74.87
2019-03-23T10:22:47.982Z,82.33
2019-03-23T10:25:15.916Z,77.13
2019-03-23T10:27:43.802Z,88.00
2019-03-23T10:30:11.760Z,84.40
2019-03-23T10:32:39.624Z,82.87
2019-03-23T10:35:08.130Z,78.60
2019-03-23T10:37:35.979Z,87.97
2019-03-23T10:40:04.497Z,80.97
2019-03-23T10:42:32.269Z,87.47
2019-03-23T10:45:00.159Z,87.33
2019-03-23T10:47:28.311Z,90.93
2019-03-23T10:49:56.122Z,97.40
2019-03-23T10:52:23.988Z,95.57
2019-03-23T10:54:51.780Z,87.37
2019-03-23T10:57:19.665Z,89.47
2019-03-23T10:59:47.533Z,87.20
2019-03-23T11:02:15.373Z,81.37
2019-03-23T11:04:43.226Z,90.57
2019-03-23T11:07:11.063Z,91.70
2019-03-23T11:09:39.346Z,87.27
2019-03-23T11:12:07.084Z,85.47
2019-03-23T11:14:34.904Z,85.43
2019-03-23T11:17:02.680Z,78.50
2019-03-23T11:19:30.577Z,79.57
2019-03-23T11:21:58.309Z,90.30
2019-03-23T11:24:26.197Z,80.30
2019-03-23T11:26:54.050Z,80.53
2019-03-23T11:29:21.893Z,79.50
2019-03-23T11:31:49.691Z,80.73
2019-03-23T11:34:18.173Z,76.83
2019-03-23T11:36:46.098Z,77.87
2019-03-23T11:39:13.949Z,79.23
2019-03-23T11:41:41.808Z,82.80
2019-03-23T11:44:09.621Z,84.80
2019-03-23T11:46:37.519Z,79.60
2019-03-23T11:49:05.244Z,80.80
2019-03-23T11:51:32.998Z,77.73
2019-03-23T11:54:00.749Z,82.63
2019-03-23T11:56:30.594Z,85.57
2019-03-23T11:58:58.339Z,84.70
2019-03-23T12:01:26.129Z,79.83
2019-03-23T12:03:53.909Z,94.23
2019-03-23T12:06:21.757Z,86.30
2019-03-23T12:08:49.652Z,88.07
2019-03-23T12:11:17.448Z,88.97
2019-03-23T12:13:45.285Z,84.57
2019-03-23T12:16:13.154Z,84.87
2019-03-23T12:18:41.019Z,89.37
2019-03-23T12:21:08.856Z,101.13
2019-03-23T12:23:36.588Z,94.17
2019-03-23T12:26:04.424Z,98.53
2019-03-23T12:28:32.299Z,88.47
2019-03-23T12:31:00.176Z,86.63
2019-03-23T12:33:27.968Z,89.00
2019-03-23T12:35:55.749Z,86.23
2019-03-23T12:38:23.698Z,87.07
2019-03-23T12:40:51.963Z,80.67
2019-03-23T12:43:19.692Z,82.90
2019-03-23T12:45:47.504Z,78.77
2019-03-23T12:48:15.413Z,81.40
2019-03-23T12:50:43.316Z,86.93
2019-03-23T12:53:11.153Z,84.60
2019-03-23T12:55:38.904Z,87.33
2019-03-23T12:58:06.731Z,84.07
2019-03-23T13:00:34.549Z,81.40
2019-03-23T13:03:02.302Z,82.37
2019-03-23T13:05:30.140Z,81.10
2019-03-23T13:07:58.036Z,77.67
2019-03-23T13:10:25.893Z,76.50
2019-03-23T13:12:53.646Z,73.13
2019-03-23T13:15:21.413Z,80.30
2019-03-23T13:17:49.264Z,74.00
2019-03-23T13:20:17.465Z,70.83
2019-03-23T13:22:45.488Z,75.17
2019-03-23T13:25:13.380Z,69.47
2019-03-23T13:27:42.194Z,71.60
2019-03-23T13:30:10.949Z,68.13
2019-03-23T13:32:38.697Z,65.27
2019-03-23T13:35:06.553Z,65.10
2019-03-23T13:37:34.429Z,61.57
2019-03-23T13:40:02.365Z,64.33
2019-03-23T13:42:30.209Z,62.10
2019-03-23T13:44:58.102Z,59.33
2019-03-23T13:47:25.993Z,63.23
2019-03-23T13:49:53.877Z,62.17
2019-03-23T13:52:21.619Z,57.00
2019-03-23T13:54:49.372Z,58.43
2019-03-23T13:57:17.227Z,60.50
2019-03-23T13:59:45.049Z,57.33
2019-03-23T14:02:12.939Z,60.40
2019-03-23T14:04:40.761Z,60.60
2019-03-23T14:07:08.593Z,58.40
2019-03-23T14:09:36.449Z,60.67
2019-03-23T14:12:04.348Z,56.90
2019-03-23T14:14:32.092Z,59.87
2019-03-23T14:16:59.945Z,57.07
2019-03-23T14:19:27.802Z,58.07
2019-03-23T14:21:55.574Z,58.00
2019-03-23T14:24:23.443Z,61.10
2019-03-23T14:26:51.346Z,58.83
2019-03-23T14:29:19.119Z,60.30
2019-03-23T14:31:46.882Z,62.77
2019-03-23T14:34:14.716Z,59.60
2019-03-23T14:36:42.570Z,58.90
2019-03-23T14:39:10.459Z,57.40
2019-03-23T14:41:38.283Z,59.10
2019-03-23T14:44:06.146Z,57.20
2019-03-23T14:46:33.992Z,56.50
2019-03-23T14:49:02.132Z,56.07
2019-03-23T14:51:30.080Z,56.50
2019-03-23T14:53:57.924Z,58.87
2019-03-23T14:56:25.781Z,57.50
2019-03-23T14:58:53.682Z,59.37
2019-03-23T15:01:21.462Z,55.33
2019-03-23T15:03:49.187Z,55.67
2019-03-23T15:06:17.046Z,57.77
2019-03-23T15:08:44.895Z,57.20
2019-03-23T15:11:12.785Z,56.47
2019-03-23T15:13:40.690Z,52.70
2019-03-23T15:16:08.563Z,58.77
2019-03-23T15:18:36.342Z,56.80
2019-03-23T15:21:04.214Z,54.17
2019-03-23T15:23:32.080Z,55.87
2019-03-23T15:25:59.914Z,53.80
2019-03-23T15:28:27.780Z,55.57
2019-03-23T15:30:55.664Z,56.47
2019-03-23T15:33:23.538Z,54.53
2019-03-23T15:35:51.382Z,54.43
2019-03-23T15:38:19.260Z,54.30
2019-03-23T15:40:47.128Z,54.10
2019-03-23T15:43:15.012Z,53.33
2019-03-23T15:45:42.906Z,55.53
2019-03-23T15:48:10.789Z,59.20
2019-03-23T15:50:38.650Z,52.33
2019-03-23T15:53:06.477Z,59.60
2019-03-23T15:55:34.361Z,53.97
2019-03-23T15:58:02.217Z,55.93
2019-03-23T16:00:30.079Z,53.80
2019-03-23T16:02:57.924Z,53.50
2019-03-23T16:05:25.674Z,60.70
2019-03-23T16:07:53.578Z,58.13
2019-03-23T16:10:21.526Z,66.60
2019-03-23T16:12:49.414Z,60.47
2019-03-23T16:15:17.146Z,61.93
2019-03-23T16:17:45.004Z,58.43
2019-03-23T16:20:13.046Z,61.63
2019-03-23T16:22:40.803Z,59.97
2019-03-23T16:25:09.708Z,62.40
2019-03-23T16:27:37.602Z,61.40
2019-03-23T16:30:07.843Z,60.50
2019-03-23T16:32:35.788Z,60.50
2019-03-23T16:35:04.260Z,59.67
2019-03-23T16:37:32.124Z,63.07
2019-03-23T16:39:59.872Z,67.07
2019-03-23T16:42:27.710Z,64.87
2019-03-23T16:44:55.494Z,68.60
2019-03-23T16:47:23.370Z,62.73
2019-03-23T16:49:51.174Z,63.80
2019-03-23T16:52:19.184Z,64.30
2019-03-23T16:54:47.048Z,61.77
2019-03-23T16:57:14.890Z,63.53
2019-03-23T16:59:42.670Z,66.37
2019-03-23T17:02:10.520Z,69.63
2019-03-23T17:04:38.410Z,62.80
2019-03-23T17:07:06.250Z,67.13
2019-03-23T17:09:34.014Z,61.83
2019-03-23T17:12:01.809Z,65.70
2019-03-23T17:14:29.683Z,67.70
2019-03-23T17:16:57.423Z,63.33
2019-03-23T17:19:25.284Z,61.90
2019-03-23T17:21:53.140Z,69.17
2019-03-23T17:24:20.984Z,66.37
2019-03-23T17:26:48.780Z,68.77
2019-03-23T17:29:16.536Z,66.17
2019-03-23T17:31:44.368Z,67.53
2019-03-23T17:34:12.240Z,67.17
2019-03-23T17:36:40.114Z,72.63
2019-03-23T17:39:07.966Z,67.53
2019-03-23T17:41:35.717Z,67.70
2019-03-23T17:44:03.656Z,66.33
2019-03-23T17:46:31.482Z,63.20
2019-03-23T17:48:59.248Z,66.40
2019-03-23T17:51:27.173Z,74.40
2019-03-23T17:53:58.902Z,68.63
2019-03-23T17:56:24.840Z,74.00
2019-03-23T17:58:52.717Z,70.47
2019-03-23T18:01:20.442Z,77.30
2019-03-23T18:03:48.310Z,74.00
2019-03-23T18:06:16.050Z,73.50
2019-03-23T18:08:43.785Z,77.03
2019-03-23T18:11:11.523Z,74.43
2019-03-23T18:13:39.377Z,70.13
2019-03-23T18:16:07.168Z,74.10
2019-03-23T18:18:34.904Z,75.83
2019-03-23T18:21:02.760Z,68.40
2019-03-23T18:23:30.526Z,72.97
2019-03-23T18:25:58.383Z,74.17
2019-03-23T18:28:26.189Z,66.03
2019-03-23T18:30:54.122Z,69.47
2019-03-23T18:33:22.084Z,74.77
2019-03-23T18:35:49.967Z,80.00
2019-03-23T18:38:17.919Z,71.33
2019-03-23T18:40:45.688Z,72.63
2019-03-23T18:43:13.532Z,67.47
2019-03-23T18:45:41.276Z,70.57
2019-03-23T18:48:09.156Z,75.13
2019-03-23T18:50:37.024Z,70.63
2019-03-23T18:53:04.922Z,73.40
2019-03-23T18:55:32.767Z,74.27
2019-03-23T18:58:00.656Z,78.63
2019-03-23T19:00:38.959Z,73.63
2019-03-23T19:03:07.036Z,72.20
2019-03-23T19:05:35.110Z,74.10
2019-03-23T19:08:02.957Z,71.00
2019-03-23T19:10:30.841Z,75.83
2019-03-23T19:12:58.738Z,71.33
2019-03-23T19:15:26.624Z,70.73
2019-03-23T19:17:54.545Z,73.63
2019-03-23T19:20:22.406Z,69.90
2019-03-23T19:22:50.322Z,72.90
2019-03-23T19:25:18.620Z,76.87
2019-03-23T19:27:49.059Z,77.37
2019-03-23T19:30:16.848Z,69.70
2019-03-23T19:32:44.627Z,76.33
2019-03-23T19:35:12.515Z,73.20
2019-03-23T19:37:40.383Z,74.73
2019-03-23T19:40:08.181Z,77.33
2019-03-23T19:42:36.029Z,75.53
2019-03-23T19:45:04.331Z,74.50
2019-03-23T19:47:32.107Z,76.47
2019-03-23T19:50:00.018Z,75.10
2019-03-23T19:52:28.108Z,78.73
2019-03-23T19:54:55.988Z,77.20
2019-03-23T19:57:23.895Z,73.13
2019-03-23T19:59:51.917Z,72.87
2019-03-23T20:02:19.858Z,80.57
2019-03-23T20:04:47.668Z,72.87
2019-03-23T20:07:15.503Z,78.53
2019-03-23T20:09:43.353Z,78.07
2019-03-23T20:12:11.277Z,74.97
2019-03-23T20:14:39.198Z,70.67
2019-03-23T20:17:07.077Z,82.23
2019-03-23T20:19:34.942Z,73.77
2019-03-23T20:22:02.974Z,75.10
2019-03-23T20:24:30.776Z,74.73
2019-03-23T20:26:58.700Z,77.77
2019-03-23T20:29:26.616Z,81.50
2019-03-23T20:31:54.557Z,80.83
2019-03-23T20:34:22.487Z,74.67
2019-03-23T20:36:50.372Z,77.33
2019-03-23T20:39:18.278Z,77.50
2019-03-23T20:41:46.187Z,84.10
2019-03-23T20:44:13.998Z,84.23
2019-03-23T20:46:42.244Z,77.30
2019-03-23T20:49:10.187Z,81.90
2019-03-23T20:51:38.319Z,78.90
2019-03-23T20:54:06.452Z,72.73
2019-03-23T20:56:34.440Z,77.90
2019-03-23T20:59:02.289Z,81.77
2019-03-23T21:01:30.189Z,77.20
2019-03-23T21:03:58.037Z,77.07
2019-03-23T21:06:25.845Z,79.97
2019-03-23T21:08:53.738Z,80.50
2019-03-23T21:11:21.604Z,82.63
2019-03-23T21:13:49.826Z,80.97
2019-03-23T21:16:17.715Z,76.30
2019-03-23T21:18:45.619Z,74.17
2019-03-23T21:21:13.539Z,78.13
2019-03-23T21:23:41.445Z,77.87
2019-03-23T21:26:09.363Z,80.53
2019-03-23T21:28:37.205Z,72.07
2019-03-23T21:31:05.205Z,82.60
2019-03-23T21:33:38.661Z,74.90
2019-03-23T21:36:02.888Z,79.77
2019-03-23T21:38:30.777Z,83.37
2019-03-23T21:40:58.672Z,77.73
2019-03-23T21:43:26.578Z,79.70
2019-03-23T21:45:54.453Z,79.67
2019-03-23T21:48:22.377Z,77.73
2019-03-23T21:50:50.271Z,77.87
2019-03-23T21:53:18.189Z,82.43
2019-03-23T21:55:46.082Z,79.20
2019-03-23T21:58:14.005Z,86.17
2019-03-23T22:00:41.892Z,83.10
2019-03-23T22:03:09.762Z,84.80
2019-03-23T22:05:37.687Z,78.87
2019-03-23T22:08:05.550Z,81.17
2019-03-23T22:10:33.425Z,79.67
2019-03-23T22:13:01.214Z,82.83
2019-03-23T22:15:32.957Z,85.90
2019-03-23T22:18:00.815Z,86.57
2019-03-23T22:20:28.727Z,85.33
2019-03-23T22:22:56.622Z,86.00
2019-03-23T22:25:24.469Z,84.87
2019-03-23T22:27:52.365Z,86.67
2019-03-23T22:30:20.169Z,84.63
2019-03-23T22:32:48.055Z,87.40
2019-03-23T22:35:15.981Z,86.37
2019-03-23T22:37:44.158Z,88.20
2019-03-23T22:40:12.073Z,88.77
2019-03-23T22:42:39.935Z,92.10
2019-03-23T22:45:08.378Z,86.33
2019-03-23T22:47:36.361Z,86.07
2019-03-23T22:50:04.506Z,93.53
2019-03-23T22:52:32.408Z,86.40
2019-03-23T22:55:00.362Z,84.53
2019-03-23T22:57:28.293Z,87.27
2019-03-23T22:59:56.180Z,91.03
2019-03-23T23:02:24.122Z,89.93
2019-03-23T23:04:52.012Z,90.70
2019-03-23T23:07:19.750Z,86.67
2019-03-23T23:09:47.539Z,90.97
2019-03-23T23:12:15.291Z,87.67
2019-03-23T23:14:43.081Z,89.17
2019-03-23T23:17:10.946Z,86.23
2019-03-23T23:19:38.813Z,91.10
2019-03-23T23:22:06.713Z,91.33
2019-03-23T23:24:34.610Z,89.10
2019-03-23T23:27:02.457Z,90.97
2019-03-23T23:29:30.322Z,88.47
2019-03-23T23:31:58.350Z,90.23
2019-03-23T23:34:26.237Z,84.87
2019-03-23T23:36:54.010Z,87.17
2019-03-23T23:39:22.028Z,89.33
2019-03-23T23:41:49.989Z,88.27
2019-03-23T23:44:17.871Z,88.93
2019-03-23T23:46:45.638Z,87.40
2019-03-23T23:49:13.381Z,81.50
2019-03-23T23:51:49.787Z,78.23
2019-03-23T23:54:11.041Z,81.90
2019-03-23T23:56:38.992Z,91.60
2019-03-23T23:59:06.897Z,85.07
